Time;durP1;ratioP1;P1;durP2;ratioP2;P2;SDS_P1;SDS_P2;PMS_P1;PMS_P2;Temp;Humidity;BMP_temperature;BMP_pressure;BME280_temperature;BME280_humidity;BME280_pressure;Samples;Min_cycle;Max_cycle;Signal;HPM_P1;HPM_P2
2023/12/15 00:00:41;;;;;;;47.90;27.20;;;;;;;0.96;92.98;100704.20;132223;1253;108754;-89
2023/12/15 00:04:06;;;;;;;33.60;17.70;;;;;;;0.97;92.53;100713.45;132111;1250;110160;-89
2023/12/15 00:07:12;;;;;;;44.50;25.90;;;;;;;0.99;92.68;100716.31;132161;1251;105535;-89
2023/12/15 00:10:18;;;;;;;74.80;39.20;;;;;;;1.02;92.80;100713.21;132030;1253;106147;-89
2023/12/15 00:13:23;;;;;;;41.50;22.50;;;;;;;1.00;92.11;100715.37;132118;1253;108701;-90
2023/12/15 00:16:29;;;;;;;32.80;17.80;;;;;;;0.95;92.11;100722.11;132043;1250;106385;-89
2023/12/15 00:19:37;;;;;;;16.90;9.60;;;;;;;0.90;92.18;100724.84;131925;1251;108724;-89
2023/12/15 00:22:42;;;;;;;29.10;16.40;;;;;;;0.78;92.40;100713.21;132108;1253;107190;-89
2023/12/15 00:25:48;;;;;;;29.40;16.40;;;;;;;0.83;92.28;100730.30;132109;1250;108693;-90
2023/12/15 00:28:54;;;;;;;21.10;11.80;;;;;;;0.80;92.24;100739.03;132049;1253;107668;-89
2023/12/15 00:31:59;;;;;;;33.80;20.60;;;;;;;0.84;92.69;100744.59;132140;1250;108707;-89
2023/12/15 00:35:06;;;;;;;28.20;17.00;;;;;;;0.91;92.53;100745.84;131970;1253;106588;-89
2023/12/15 00:38:11;;;;;;;54.20;36.10;;;;;;;0.92;91.87;100751.36;132157;1251;107797;-89
2023/12/15 00:41:17;;;;;;;32.70;21.60;;;;;;;0.91;91.89;100758.06;132007;1250;106324;-89
2023/12/15 00:44:24;;;;;;;29.40;19.50;;;;;;;0.90;91.79;100766.21;132098;1251;108467;-89
2023/12/15 00:47:29;;;;;;;29.00;19.10;;;;;;;0.89;92.22;100768.85;132179;1250;108786;-89
2023/12/15 00:50:36;;;;;;;25.10;15.50;;;;;;;0.87;91.92;100773.70;132000;1250;108658;-90
2023/12/15 00:53:42;;;;;;;25.60;16.60;;;;;;;0.84;92.14;100775.24;131873;1253;107947;-90
2023/12/15 00:56:48;;;;;;;27.50;15.70;;;;;;;0.86;92.30;100780.23;131780;1251;107142;-92
2023/12/15 00:59:56;;;;;;;19.30;12.30;;;;;;;0.89;92.18;100787.25;131841;1251;108773;-89
2023/12/15 01:03:01;;;;;;;26.00;16.40;;;;;;;0.94;92.49;100789.98;132022;1251;108729;-90
2023/12/15 01:06:07;;;;;;;23.80;14.50;;;;;;;0.98;92.42;100789.45;132293;1250;108593;-89
2023/12/15 01:09:13;;;;;;;23.00;13.30;;;;;;;1.01;92.12;100793.33;132236;1249;106668;-89
2023/12/15 01:12:19;;;;;;;26.20;16.40;;;;;;;0.98;92.18;100801.66;132150;1250;108389;-90
2023/12/15 01:15:24;;;;;;;22.20;13.90;;;;;;;0.97;92.17;100805.44;132074;1250;107190;-88
2023/12/15 01:18:30;;;;;;;21.70;13.20;;;;;;;0.95;92.32;100813.36;132083;1250;106567;-89
2023/12/15 01:21:36;;;;;;;19.90;12.00;;;;;;;0.93;92.29;100812.64;131868;1254;109003;-88
2023/12/15 01:24:41;;;;;;;16.20;10.50;;;;;;;0.85;92.65;100799.55;132056;1253;107447;-89
2023/12/15 01:27:47;;;;;;;19.60;9.80;;;;;;;0.97;92.19;100821.88;131998;1250;105924;-89
2023/12/15 01:30:52;;;;;;;18.80;11.20;;;;;;;0.98;92.10;100824.98;132113;1253;107672;-89
2023/12/15 01:33:59;;;;;;;18.30;10.60;;;;;;;0.95;91.87;100830.56;132033;1253;107627;-88
2023/12/15 01:37:05;;;;;;;17.50;11.00;;;;;;;0.91;91.92;100835.84;132010;1251;106195;-87
2023/12/15 01:40:12;;;;;;;18.90;11.70;;;;;;;0.90;92.10;100848.16;132129;1249;106942;-89
2023/12/15 01:43:17;;;;;;;18.90;10.70;;;;;;;0.84;92.20;100848.64;131956;1250;108697;-89
2023/12/15 01:46:23;;;;;;;16.20;9.50;;;;;;;0.70;92.41;100835.46;132021;1249;107105;-89
2023/12/15 01:49:29;;;;;;;19.20;10.50;;;;;;;0.78;92.58;100851.55;132216;1250;106680;-89
2023/12/15 01:52:35;;;;;;;19.90;10.80;;;;;;;0.79;92.62;100859.38;131959;1249;107321;-88
2023/12/15 01:55:41;;;;;;;16.90;9.40;;;;;;;0.81;92.67;100862.98;132160;1251;107452;-89
2023/12/15 01:58:47;;;;;;;18.70;10.50;;;;;;;0.78;92.57;100858.20;132179;1250;108656;-89
2023/12/15 02:01:52;;;;;;;17.80;10.30;;;;;;;0.86;92.54;100874.44;132116;1250;106672;-89
2023/12/15 02:04:58;;;;;;;18.60;11.40;;;;;;;0.81;92.27;100877.50;131969;1253;106570;-89
2023/12/15 02:08:04;;;;;;;20.60;11.00;;;;;;;0.65;92.34;100867.73;131762;1256;106205;-89
2023/12/15 02:11:10;;;;;;;21.00;11.40;;;;;;;0.70;92.51;100890.61;131890;1251;107899;-89
2023/12/15 02:14:15;;;;;;;20.80;11.30;;;;;;;0.68;92.74;100891.24;131844;1250;107323;-89
2023/12/15 02:17:21;;;;;;;19.90;10.70;;;;;;;0.72;92.82;100895.08;132245;1250;108110;-88
2023/12/15 02:20:27;;;;;;;21.80;11.00;;;;;;;0.76;92.86;100898.73;131530;1250;815936;-89
2023/12/15 02:23:34;;;;;;;21.00;11.00;;;;;;;0.84;92.30;100900.27;131905;1250;107030;-89
2023/12/15 02:26:39;;;;;;;18.80;11.00;;;;;;;0.86;92.33;100897.40;131689;1250;108266;-92
2023/12/15 02:29:46;;;;;;;19.10;11.00;;;;;;;0.93;92.66;100881.45;131969;1253;106219;-90
2023/12/15 02:32:51;;;;;;;18.60;11.50;;;;;;;1.01;92.54;100883.52;132107;1250;106069;-90
2023/12/15 02:35:57;;;;;;;20.10;11.50;;;;;;;1.03;92.20;100888.14;132039;1253;107664;-89
2023/12/15 02:39:03;;;;;;;20.60;11.30;;;;;;;1.01;92.13;100880.39;132015;1255;107543;-89
2023/12/15 02:42:09;;;;;;;19.40;11.20;;;;;;;1.04;92.41;100886.16;132034;1250;106503;-89
2023/12/15 02:45:15;;;;;;;21.90;11.80;;;;;;;1.11;92.13;100893.52;131973;1250;107624;-89
2023/12/15 02:48:20;;;;;;;18.20;10.80;;;;;;;1.01;92.00;100876.14;131941;1250;108279;-88
2023/12/15 02:51:31;;;;;;;22.20;11.40;;;;;;;1.21;92.02;100898.48;131891;1256;107701;-88
2023/12/15 02:54:36;;;;;;;20.80;12.20;;;;;;;1.26;91.50;100907.51;131549;1256;108927;-88
2023/12/15 02:57:42;;;;;;;22.60;12.60;;;;;;;1.14;90.56;100918.80;131904;1253;108568;-92
2023/12/15 03:00:48;;;;;;;22.90;13.10;;;;;;;1.07;91.26;100924.77;131982;1256;108125;-89
2023/12/15 03:03:53;;;;;;;24.20;13.20;;;;;;;0.98;91.06;100936.41;132160;1253;108600;-90
2023/12/15 03:06:59;;;;;;;20.60;12.60;;;;;;;0.86;91.15;100940.67;132066;1253;107686;-89
2023/12/15 03:10:05;;;;;;;24.10;13.20;;;;;;;0.82;91.37;100943.66;132162;1250;106449;-91
2023/12/15 03:13:11;;;;;;;21.00;11.80;;;;;;;0.78;91.51;100960.48;132113;1250;107175;-90
2023/12/15 03:16:17;;;;;;;20.00;11.10;;;;;;;0.76;91.46;100965.48;132128;1250;107601;-91
2023/12/15 03:19:23;;;;;;;64.30;31.20;;;;;;;0.77;91.50;100963.31;131779;1253;106864;-90
2023/12/15 03:22:28;;;;;;;21.90;11.90;;;;;;;0.86;91.63;100956.96;131995;1253;105877;-90
2023/12/15 03:25:34;;;;;;;26.30;14.70;;;;;;;0.89;91.30;100961.02;131822;1251;108071;-90
2023/12/15 03:28:41;;;;;;;22.70;11.80;;;;;;;0.92;91.33;100972.78;132008;1253;108484;-91
2023/12/15 03:31:47;;;;;;;20.50;12.40;;;;;;;0.94;91.17;100971.46;132042;1251;106516;-89
2023/12/15 03:34:53;;;;;;;22.10;12.70;;;;;;;0.92;90.70;100978.71;132013;1250;106824;-90
2023/12/15 03:37:58;;;;;;;21.80;12.70;;;;;;;0.88;90.88;100983.83;132346;1249;106660;-86
2023/12/15 03:41:04;;;;;;;22.80;11.80;;;;;;;0.83;91.03;100992.11;131809;1256;106909;-87
2023/12/15 03:44:10;;;;;;;33.30;15.40;;;;;;;0.78;90.87;100997.92;131940;1250;107011;-87
2023/12/15 03:47:16;;;;;;;378.40;99.00;;;;;;;0.77;91.19;100996.92;131988;1253;108483;-85
2023/12/15 03:50:24;;;;;;;243.90;61.60;;;;;;;0.85;91.37;100995.55;131921;1253;108679;-86
2023/12/15 03:53:30;;;;;;;56.00;24.50;;;;;;;0.96;91.25;101000.10;131910;1256;107152;-89
2023/12/15 03:56:36;;;;;;;114.20;34.80;;;;;;;0.96;90.33;101013.06;132025;1250;107987;-87
2023/12/15 03:59:41;;;;;;;105.50;32.60;;;;;;;0.95;90.78;101016.09;131842;1251;107732;-88
2023/12/15 04:02:47;;;;;;;82.00;26.10;;;;;;;0.95;90.93;101019.23;131919;1250;106899;-86
2023/12/15 04:05:53;;;;;;;979.00;300.30;;;;;;;0.96;90.88;101018.14;131792;1251;106851;-87
2023/12/15 04:08:58;;;;;;;908.60;307.60;;;;;;;1.02;91.23;101021.67;131892;1250;107680;-87
2023/12/15 04:12:04;;;;;;;287.60;83.10;;;;;;;1.09;90.99;101028.36;131898;1250;107647;-85
2023/12/15 04:15:11;;;;;;;62.80;23.80;;;;;;;1.08;90.80;101032.09;131789;1253;108797;-86
2023/12/15 04:18:17;;;;;;;117.40;45.60;;;;;;;1.08;90.94;101033.34;131839;1254;106508;-86
2023/12/15 04:21:22;;;;;;;265.50;111.20;;;;;;;1.13;91.11;101032.77;131798;1250;107430;-86
2023/12/15 04:24:28;;;;;;;303.40;133.20;;;;;;;1.25;91.29;101036.37;132056;1256;107635;-87
2023/12/15 04:27:33;;;;;;;464.10;216.00;;;;;;;1.38;91.02;101042.96;132015;1256;108652;-85
2023/12/15 04:30:39;;;;;;;171.40;73.20;;;;;;;1.47;91.02;101047.61;131926;1251;107744;-87
2023/12/15 04:33:47;;;;;;;160.70;75.00;;;;;;;1.56;91.00;101049.42;131830;1256;107094;-86
2023/12/15 04:36:52;;;;;;;116.60;54.30;;;;;;;1.62;90.74;101053.87;131881;1250;107471;-85
2023/12/15 04:39:58;;;;;;;104.60;47.90;;;;;;;1.66;90.84;101055.23;131676;1250;106765;-87
2023/12/15 04:43:04;;;;;;;61.90;30.40;;;;;;;1.68;90.40;101055.98;131691;1254;108325;-87
2023/12/15 04:46:09;;;;;;;57.60;30.70;;;;;;;1.69;90.49;101060.73;131979;1256;107716;-88
2023/12/15 04:49:15;;;;;;;56.90;30.90;;;;;;;1.68;90.50;101066.00;132034;1256;107666;-86
2023/12/15 04:52:21;;;;;;;36.30;20.50;;;;;;;1.69;90.35;101065.08;132041;1256;107278;-87
2023/12/15 04:55:26;;;;;;;37.20;20.60;;;;;;;1.71;90.57;101064.98;131940;1253;106365;-87
2023/12/15 04:58:32;;;;;;;34.40;22.10;;;;;;;1.72;90.41;101065.65;131993;1256;107566;-86
2023/12/15 05:01:38;;;;;;;32.30;20.30;;;;;;;1.74;90.36;101068.02;131867;1256;108732;-87
2023/12/15 05:04:43;;;;;;;25.20;14.40;;;;;;;1.80;90.56;101071.02;131864;1259;106176;-86
2023/12/15 05:07:49;;;;;;;22.90;13.70;;;;;;;1.87;90.58;101079.13;132017;1250;107819;-85
2023/12/15 05:10:55;;;;;;;25.10;14.00;;;;;;;1.92;90.55;101081.30;131876;1251;108464;-86
2023/12/15 05:14:00;;;;;;;75.80;29.10;;;;;;;1.95;90.45;101084.32;132040;1253;106474;-86
2023/12/15 05:17:06;;;;;;;424.90;163.10;;;;;;;1.88;90.20;101074.30;132054;1252;107787;-85
2023/12/15 05:20:13;;;;;;;184.60;63.20;;;;;;;1.94;90.13;101089.63;131830;1251;109323;-86
2023/12/15 05:23:18;;;;;;;598.30;261.50;;;;;;;1.94;90.14;101091.55;131702;1254;106486;-86
2023/12/15 05:26:24;;;;;;;289.20;95.70;;;;;;;1.92;90.08;101093.73;131625;1254;107818;-83
2023/12/15 05:29:33;;;;;;;119.30;39.70;;;;;;;1.91;90.08;101095.21;131403;1256;107814;-85
2023/12/15 05:32:39;;;;;;;223.30;60.90;;;;;;;1.91;90.15;101093.31;131383;1254;107728;-83
2023/12/15 05:35:45;;;;;;;362.70;88.80;;;;;;;1.92;90.26;101091.67;131500;1257;107228;-84
2023/12/15 05:38:52;;;;;;;385.20;95.50;;;;;;;1.96;90.21;101094.95;131474;1251;105634;-84
2023/12/15 05:41:58;;;;;;;91.70;28.70;;;;;;;2.02;90.13;101095.57;131850;1251;108638;-86
2023/12/15 05:45:04;;;;;;;167.60;44.90;;;;;;;2.04;90.04;101095.46;131569;1251;106537;-83
2023/12/15 05:48:10;;;;;;;92.60;29.00;;;;;;;2.06;90.04;101093.92;131534;1254;106759;-84
2023/12/15 05:51:16;;;;;;;46.10;18.10;;;;;;;2.08;90.02;101099.83;131372;1251;108726;-84
2023/12/15 05:54:21;;;;;;;41.80;16.60;;;;;;;2.08;89.99;101109.10;131578;1255;106587;-84
2023/12/15 05:57:27;;;;;;;25.20;13.60;;;;;;;2.07;89.77;101110.54;131381;1255;108725;-83
2023/12/15 06:00:32;;;;;;;43.40;17.30;;;;;;;2.06;89.89;101112.88;131315;1251;107711;-83
2023/12/15 06:03:38;;;;;;;133.40;38.00;;;;;;;2.05;89.74;101121.00;131452;1251;107718;-83
2023/12/15 06:06:44;;;;;;;398.90;95.50;;;;;;;2.03;89.82;101123.79;131473;1253;106962;-83
2023/12/15 06:09:50;;;;;;;305.00;70.30;;;;;;;2.02;89.83;101123.98;131648;1253;108140;-85
2023/12/15 06:12:55;;;;;;;46.20;17.90;;;;;;;2.04;89.92;101124.74;131558;1257;106300;-84
2023/12/15 06:16:01;;;;;;;42.10;15.20;;;;;;;2.10;89.97;101127.45;131594;1253;108607;-83
2023/12/15 06:19:06;;;;;;;62.30;20.50;;;;;;;2.16;89.83;101133.65;131469;1254;108509;-83
2023/12/15 06:22:12;;;;;;;37.90;15.70;;;;;;;2.20;89.60;101138.88;131420;1256;106918;-84
2023/12/15 06:25:17;;;;;;;89.40;27.90;;;;;;;2.25;89.59;101145.13;131520;1253;108722;-84
2023/12/15 06:28:24;;;;;;;119.10;34.20;;;;;;;2.28;89.62;101153.77;131714;1254;108521;-84
2023/12/15 06:31:30;;;;;;;86.60;26.30;;;;;;;2.29;89.54;101160.36;131310;1254;107599;-84
2023/12/15 06:34:37;;;;;;;61.20;21.00;;;;;;;2.29;89.52;101162.80;131563;1253;106827;-82
2023/12/15 06:37:43;;;;;;;28.80;13.10;;;;;;;2.29;89.46;101167.70;131521;1257;107289;-83
2023/12/15 06:40:48;;;;;;;22.40;11.50;;;;;;;2.28;89.40;101173.57;131567;1253;108800;-84
2023/12/15 06:43:53;;;;;;;28.50;15.30;;;;;;;2.26;89.24;101181.73;131508;1253;107676;-88
2023/12/15 06:46:59;;;;;;;28.00;14.40;;;;;;;2.26;89.41;101182.30;131724;1256;108685;-82
2023/12/15 06:50:06;;;;;;;26.10;14.00;;;;;;;2.24;89.30;101184.65;131379;1254;108784;-82
2023/12/15 06:53:12;;;;;;;20.40;11.30;;;;;;;2.24;89.35;101185.72;131368;1263;108579;-82
2023/12/15 06:56:18;;;;;;;24.00;12.90;;;;;;;2.27;89.53;101186.08;131281;1251;108677;-83
2023/12/15 06:59:23;;;;;;;22.50;12.80;;;;;;;2.32;89.12;101184.95;131417;1251;108463;-82
2023/12/15 07:02:29;;;;;;;22.10;12.70;;;;;;;2.37;88.80;101186.83;131378;1251;107730;-83
2023/12/15 07:05:35;;;;;;;22.00;13.00;;;;;;;2.41;88.53;101197.54;131272;1254;108729;-82
2023/12/15 07:08:43;;;;;;;18.70;11.10;;;;;;;2.42;88.16;101202.58;131321;1255;105554;-82
2023/12/15 07:11:48;;;;;;;20.60;11.50;;;;;;;2.39;87.66;101204.96;131258;1251;108707;-85
2023/12/15 07:14:54;;;;;;;19.90;11.80;;;;;;;2.36;87.90;101209.16;131323;1263;108668;-84
2023/12/15 07:17:59;;;;;;;18.30;10.80;;;;;;;2.35;87.90;101212.73;131340;1251;107572;-83
2023/12/15 07:21:05;;;;;;;16.90;10.30;;;;;;;2.32;88.16;101211.45;131264;1251;106763;-83
2023/12/15 07:24:11;;;;;;;213.20;95.80;;;;;;;2.30;87.88;101218.77;131346;1255;107699;-83
2023/12/15 07:27:17;;;;;;;198.50;79.10;;;;;;;2.26;87.76;101221.94;131354;1254;107574;-83
2023/12/15 07:30:23;;;;;;;364.50;125.00;;;;;;;2.22;87.92;101231.83;131270;1251;108512;-82
2023/12/15 07:33:29;;;;;;;599.70;232.50;;;;;;;2.19;88.09;101235.46;131422;1254;107579;-82
2023/12/15 07:36:34;;;;;;;245.00;77.10;;;;;;;2.17;88.02;101234.17;131390;1251;108634;-83
2023/12/15 07:39:40;;;;;;;248.20;81.80;;;;;;;2.22;88.20;101247.61;131313;1251;107850;-82
2023/12/15 07:42:45;;;;;;;231.50;77.80;;;;;;;2.25;88.26;101253.25;132644;1250;108008;-84
2023/12/15 07:45:51;;;;;;;259.00;85.90;;;;;;;2.31;88.39;101256.13;131332;1254;106687;-83
2023/12/15 07:48:57;;;;;;;389.90;120.00;;;;;;;2.31;88.14;101257.84;131277;1254;107215;-81
2023/12/15 07:52:03;;;;;;;430.50;138.60;;;;;;;2.31;88.20;101259.96;131321;1254;106884;-82
2023/12/15 07:55:10;;;;;;;361.90;111.40;;;;;;;2.18;88.00;101252.02;131321;1258;110362;-82
2023/12/15 07:58:15;;;;;;;359.30;116.90;;;;;;;2.23;88.39;101266.36;131230;1254;107534;-83
2023/12/15 08:01:23;;;;;;;248.30;83.70;;;;;;;2.22;88.46;101269.73;131310;1257;106754;-82
2023/12/15 08:04:29;;;;;;;277.50;99.40;;;;;;;2.23;88.61;101273.38;131424;1261;107457;-81
2023/12/15 08:07:35;;;;;;;251.40;90.60;;;;;;;2.21;88.59;101278.21;131442;1253;108570;-82
2023/12/15 08:10:40;;;;;;;103.10;38.60;;;;;;;2.19;88.76;101286.02;131275;1251;108422;-83
2023/12/15 08:13:46;;;;;;;121.60;43.30;;;;;;;2.18;88.88;101291.48;131443;1263;105419;-81
2023/12/15 08:16:51;;;;;;;445.50;150.10;;;;;;;2.18;89.10;101299.97;131341;1253;108634;-83
2023/12/15 08:19:57;;;;;;;166.20;52.30;;;;;;;2.19;89.16;101302.87;131372;1253;108797;-84
2023/12/15 08:23:02;;;;;;;45.40;20.60;;;;;;;2.18;89.33;101310.66;131313;1251;107795;-84
2023/12/15 08:26:09;;;;;;;205.90;60.20;;;;;;;2.08;89.31;101317.80;131275;1251;108567;-84
2023/12/15 08:29:15;;;;;;;849.70;322.70;;;;;;;2.08;89.70;101316.20;131286;1253;108685;-83
2023/12/15 08:32:20;;;;;;;526.80;153.80;;;;;;;2.13;89.84;101318.80;131419;1251;108709;-84
2023/12/15 08:35:26;;;;;;;609.10;202.20;;;;;;;2.13;89.59;101328.23;131396;1264;108474;-84
2023/12/15 08:38:32;;;;;;;40.50;20.80;;;;;;;2.13;89.74;101333.85;131418;1251;107192;-86
2023/12/15 08:41:38;;;;;;;136.80;52.60;;;;;;;2.10;89.72;101340.67;131239;1255;106553;-84
2023/12/15 08:44:44;;;;;;;40.50;20.00;;;;;;;2.11;89.94;101349.42;131317;1255;106504;-84
2023/12/15 08:47:49;;;;;;;51.30;27.20;;;;;;;2.04;89.95;101351.51;131302;1254;107756;-84
2023/12/15 08:50:55;;;;;;;40.20;22.20;;;;;;;1.95;90.31;101355.42;131406;1251;108667;-83
2023/12/15 08:54:01;;;;;;;95.40;58.40;;;;;;;1.97;90.25;101357.09;131353;1254;107868;-83
2023/12/15 08:57:06;;;;;;;38.40;23.30;;;;;;;1.99;90.38;101353.13;131336;1261;107883;-84
2023/12/15 09:00:13;;;;;;;39.20;23.50;;;;;;;2.04;90.37;101349.56;131306;1254;108477;-84
2023/12/15 09:03:19;;;;;;;28.40;17.30;;;;;;;2.15;90.41;101353.61;131490;1249;107716;-83
2023/12/15 09:06:24;;;;;;;25.20;15.10;;;;;;;2.26;89.88;101358.20;131295;1254;106778;-83
2023/12/15 09:09:30;;;;;;;28.80;18.70;;;;;;;2.36;89.94;101359.98;131316;1251;107137;-83
2023/12/15 09:12:36;;;;;;;25.20;15.70;;;;;;;2.49;89.81;101363.39;131343;1254;108146;-84
2023/12/15 09:15:42;;;;;;;33.50;17.60;;;;;;;2.58;89.69;101360.86;131360;1254;106893;-82
2023/12/15 09:18:47;;;;;;;31.00;16.50;;;;;;;2.67;89.25;101361.83;131427;1254;106513;-83
2023/12/15 09:21:53;;;;;;;32.90;17.20;;;;;;;2.67;89.19;101364.63;131344;1253;108659;-84
2023/12/15 09:24:59;;;;;;;32.70;17.70;;;;;;;2.61;89.46;101371.78;131445;1251;107791;-83
2023/12/15 09:28:05;;;;;;;26.60;16.10;;;;;;;2.57;89.41;101380.60;131305;1254;109687;-84
2023/12/15 09:31:11;;;;;;;160.70;69.00;;;;;;;2.49;89.43;101387.98;131272;1249;107593;-84
2023/12/15 09:34:19;;;;;;;855.80;365.70;;;;;;;2.48;89.88;101390.34;131361;1254;108323;-83
2023/12/15 09:37:24;;;;;;;193.70;63.30;;;;;;;2.55;90.15;101390.70;131294;1254;106959;-83
2023/12/15 09:40:33;;;;;;;123.00;43.00;;;;;;;2.70;90.09;101389.81;131317;1253;107804;-84
2023/12/15 09:43:38;;;;;;;86.80;33.40;;;;;;;2.77;89.68;101384.90;131266;1253;106649;-85
2023/12/15 09:46:45;;;;;;;946.80;341.70;;;;;;;2.82;89.69;101388.89;131365;1250;107720;-84
2023/12/15 09:49:53;;;;;;;171.90;52.10;;;;;;;2.93;90.01;101383.73;131520;1251;106692;-84
2023/12/15 09:53:00;;;;;;;525.80;191.00;;;;;;;2.98;89.68;101385.63;131333;1251;106730;-83
2023/12/15 09:56:06;;;;;;;895.80;330.30;;;;;;;3.00;89.54;101384.51;131359;1253;107701;-83
2023/12/15 09:59:12;;;;;;;524.20;153.40;;;;;;;3.04;89.56;101380.23;131388;1251;107594;-84
2023/12/15 10:02:18;;;;;;;519.90;157.60;;;;;;;3.08;89.55;101383.17;131344;1251;106863;-84
2023/12/15 10:05:27;;;;;;;148.90;48.20;;;;;;;3.10;89.42;101386.41;131308;1255;105759;-85
2023/12/15 10:08:41;;;;;;;359.70;105.40;;;;;;;3.19;89.56;101391.61;131432;1254;107683;-84
2023/12/15 10:11:50;;;;;;;485.70;160.50;;;;;;;3.24;89.00;101394.02;131518;1251;108405;-83
2023/12/15 10:14:58;;;;;;;585.10;191.70;;;;;;;3.23;88.99;101393.38;131390;1252;106702;-84
2023/12/15 10:18:05;;;;;;;502.60;190.30;;;;;;;3.20;89.25;101395.27;131339;1251;106360;-84
2023/12/15 10:21:11;;;;;;;256.10;97.50;;;;;;;3.26;89.29;101396.52;131400;1252;107623;-82
2023/12/15 10:24:25;;;;;;;77.20;32.60;;;;;;;3.26;89.17;101406.73;131274;1254;108535;-83
2023/12/15 10:27:31;;;;;;;41.80;23.00;;;;;;;3.16;88.84;101410.92;131397;1254;107947;-83
2023/12/15 10:30:38;;;;;;;69.00;40.60;;;;;;;3.13;89.33;101418.11;131279;1250;108503;-83
2023/12/15 10:33:45;;;;;;;35.70;21.60;;;;;;;3.16;89.31;101410.39;131255;1255;106657;-84
2023/12/15 10:36:50;;;;;;;66.40;35.10;;;;;;;3.17;89.19;101410.36;131363;1264;107733;-84
2023/12/15 10:39:57;;;;;;;37.70;21.70;;;;;;;3.23;89.31;101409.20;131396;1254;106792;-84
2023/12/15 10:43:04;;;;;;;105.20;46.20;;;;;;;3.22;88.95;101409.73;131405;1251;106163;-83
2023/12/15 10:46:11;;;;;;;53.10;26.00;;;;;;;3.28;89.18;101412.98;131390;1251;108747;-83
2023/12/15 10:49:18;;;;;;;47.00;24.70;;;;;;;3.27;89.06;101410.36;131377;1251;106853;-83
2023/12/15 10:52:26;;;;;;;60.30;28.40;;;;;;;3.27;88.89;101411.63;131414;1254;107610;-84
2023/12/15 10:55:32;;;;;;;35.90;21.10;;;;;;;3.29;89.03;101413.81;131405;1253;107404;-83
2023/12/15 10:58:38;;;;;;;38.50;21.70;;;;;;;3.30;89.01;101408.10;131320;1253;106702;-84
2023/12/15 11:01:47;;;;;;;28.40;16.50;;;;;;;3.38;89.16;101396.12;131304;1250;107608;-85
2023/12/15 11:04:53;;;;;;;28.00;17.50;;;;;;;3.50;89.28;101379.11;131374;1250;108709;-83
2023/12/15 11:08:00;;;;;;;31.00;17.90;;;;;;;3.66;89.26;101384.47;131301;1250;107770;-83
2023/12/15 11:11:08;;;;;;;27.20;18.10;;;;;;;3.77;89.02;101386.52;131408;1253;108410;-84
2023/12/15 11:14:14;;;;;;;31.60;19.20;;;;;;;3.84;88.87;101387.55;131277;1254;108661;-83
2023/12/15 11:17:19;;;;;;;32.40;21.40;;;;;;;3.88;88.84;101398.77;131315;1254;106836;-83
2023/12/15 11:20:42;;;;;;;38.70;20.80;;;;;;;3.92;88.50;101399.05;131452;1253;108270;-86
2023/12/15 11:23:59;;;;;;;39.30;19.60;;;;;;;3.92;88.60;101398.56;131358;1251;108502;-84
2023/12/15 11:27:06;;;;;;;30.00;16.10;;;;;;;3.91;88.42;101394.52;131300;1250;106242;-83
2023/12/15 11:30:34;;;;;;;24.90;15.60;;;;;;;3.90;88.20;101401.83;131385;1254;108758;-83
2023/12/15 11:33:46;;;;;;;31.90;17.00;;;;;;;3.94;88.13;101405.30;131452;1253;107552;-84
2023/12/15 11:36:52;;;;;;;26.90;16.30;;;;;;;4.00;88.12;101412.91;131404;1253;107552;-83
2023/12/15 11:39:58;;;;;;;32.30;17.70;;;;;;;4.06;88.16;101421.23;131330;1253;106371;-83
2023/12/15 11:43:04;;;;;;;27.80;16.60;;;;;;;4.12;88.17;101419.33;131384;1253;107110;-84
2023/12/15 11:46:11;;;;;;;108.70;50.60;;;;;;;4.15;87.99;101423.75;131404;1250;106949;-83
2023/12/15 11:49:25;;;;;;;536.30;241.10;;;;;;;4.10;87.75;101422.94;131341;1251;106468;-84
2023/12/15 11:52:31;;;;;;;584.60;255.30;;;;;;;4.10;87.59;101430.35;131477;1251;107928;-83
2023/12/15 11:55:38;;;;;;;322.80;109.50;;;;;;;4.09;87.86;101434.95;131327;1250;106547;-84
2023/12/15 11:58:43;;;;;;;617.50;220.90;;;;;;;4.10;87.73;101440.38;131419;1251;106433;-84
2023/12/15 12:01:51;;;;;;;330.50;104.20;;;;;;;4.08;87.49;101449.63;131330;1256;107046;-85
2023/12/15 12:04:58;;;;;;;443.80;147.80;;;;;;;4.13;87.50;101451.51;131290;1253;107715;-85
2023/12/15 12:08:04;;;;;;;470.20;160.30;;;;;;;4.22;87.82;101449.42;131290;1251;108687;-83
2023/12/15 12:11:10;;;;;;;375.60;118.00;;;;;;;4.26;87.44;101451.47;131238;1250;107607;-83
2023/12/15 12:14:16;;;;;;;671.00;311.80;;;;;;;4.34;87.77;101449.86;131308;1264;106164;-82
2023/12/15 12:17:25;;;;;;;476.90;192.50;;;;;;;4.34;87.45;101453.88;131279;1254;107880;-82
2023/12/15 12:20:31;;;;;;;435.80;198.20;;;;;;;4.36;87.61;101453.59;131360;1254;107966;-82
2023/12/15 12:23:38;;;;;;;215.70;92.00;;;;;;;4.34;87.17;101464.66;131207;1250;107560;-82
2023/12/15 12:26:46;;;;;;;167.10;77.20;;;;;;;4.30;87.10;101463.45;131184;1251;107603;-82
2023/12/15 12:29:53;;;;;;;227.10;103.30;;;;;;;4.22;86.39;101465.10;131279;1258;106703;-83
2023/12/15 12:32:59;;;;;;;163.70;79.30;;;;;;;4.18;86.93;101469.39;131380;1250;107373;-82
2023/12/15 12:36:06;;;;;;;225.10;95.40;;;;;;;4.13;86.89;101473.17;131358;1254;106655;-85
2023/12/15 12:39:12;;;;;;;354.10;157.00;;;;;;;4.09;87.04;101473.89;131382;1249;108466;-83
2023/12/15 12:42:18;;;;;;;178.70;79.60;;;;;;;4.17;87.27;101472.98;131377;1250;107692;-82
2023/12/15 12:45:23;;;;;;;127.40;66.60;;;;;;;4.26;86.75;101467.33;131260;1254;106198;-85
2023/12/15 12:48:30;;;;;;;116.60;66.80;;;;;;;4.33;86.38;101471.70;131301;1254;108725;-84
2023/12/15 12:51:35;;;;;;;115.70;79.50;;;;;;;4.34;86.58;101473.11;131329;1253;108932;-84
2023/12/15 12:54:44;;;;;;;46.50;25.40;;;;;;;4.37;86.51;101481.18;131263;1257;107689;-84
2023/12/15 12:57:49;;;;;;;28.80;17.60;;;;;;;4.36;85.70;101481.41;131319;1249;108838;-83
2023/12/15 13:00:55;;;;;;;30.40;17.10;;;;;;;4.27;84.91;101481.39;131366;1253;107384;-84
2023/12/15 13:04:01;;;;;;;30.90;17.70;;;;;;;4.19;85.82;101483.73;131371;1253;108720;-84
2023/12/15 13:07:06;;;;;;;29.60;17.30;;;;;;;4.12;85.86;101482.91;131283;1254;106402;-84
2023/12/15 13:10:14;;;;;;;64.60;29.60;;;;;;;4.07;85.79;101487.54;131386;1253;108801;-84
2023/12/15 13:13:22;;;;;;;32.70;16.30;;;;;;;4.03;85.94;101483.73;131467;1250;106724;-84
2023/12/15 13:16:27;;;;;;;43.10;26.80;;;;;;;4.03;85.86;101488.14;131357;1251;106576;-84
2023/12/15 13:19:33;;;;;;;38.00;20.10;;;;;;;4.03;85.70;101483.92;131531;1249;108592;-84
2023/12/15 13:22:39;;;;;;;50.60;26.10;;;;;;;4.06;85.70;101485.14;131305;1254;108024;-84
2023/12/15 13:25:45;;;;;;;225.70;82.20;;;;;;;4.03;85.05;101486.20;131382;1250;107640;-84
2023/12/15 13:28:50;;;;;;;579.80;237.90;;;;;;;4.00;85.62;101485.48;131331;1253;108580;-81
2023/12/15 13:31:57;;;;;;;484.60;178.60;;;;;;;3.98;85.33;101489.09;131346;1249;108847;-82
2023/12/15 13:35:03;;;;;;;698.60;267.80;;;;;;;3.91;85.11;101486.63;131434;1250;108613;-82
2023/12/15 13:38:08;;;;;;;450.40;146.30;;;;;;;3.87;85.44;101488.06;131365;1253;108413;-84
2023/12/15 13:41:15;;;;;;;477.40;166.00;;;;;;;3.82;85.20;101488.35;131326;1250;107418;-83
2023/12/15 13:44:21;;;;;;;434.80;145.30;;;;;;;3.76;85.17;101487.77;131564;1254;108831;-82
2023/12/15 13:47:27;;;;;;;356.00;123.50;;;;;;;3.72;85.59;101485.66;131372;1251;108578;-83
2023/12/15 13:50:33;;;;;;;671.10;258.40;;;;;;;3.69;85.60;101489.53;131425;1249;106862;-84